Time;durP1;ratioP1;P1;durP2;ratioP2;P2;SDS_P1;SDS_P2;PMS_P1;PMS_P2;Temp;Humidity;BMP_temperature;BMP_pressure;BME280_temperature;BME280_humidity;BME280_pressure;Samples;Min_cycle;Max_cycle;Signal;HPM_P1;HPM_P2
2022/09/23 00:01:24;;;;;;;12.77;4.37;;;20.10;99.90;;;;;;5073026;28;20180;-68
2022/09/23 00:03:52;;;;;;;15.20;4.70;;;19.90;99.90;;;;;;5073257;28;20213;-69
2022/09/23 00:06:22;;;;;;;12.53;5.03;;;19.60;99.90;;;;;;5073015;28;20187;-68
2022/09/23 00:08:51;;;;;;;12.13;4.93;;;19.40;99.90;;;;;;5065514;28;20191;-70
2022/09/23 00:11:22;;;;;;;17.87;5.50;;;19.20;99.90;;;;;;5074808;28;20180;-69
2022/09/23 00:13:53;;;;;;;13.13;4.47;;;19.00;99.90;;;;;;5077655;28;20236;-70
2022/09/23 00:16:24;;;;;;;11.90;4.70;;;18.90;99.90;;;;;;5065226;28;20204;-69
2022/09/23 00:18:52;;;;;;;15.73;4.90;;;18.80;99.90;;;;;;5062557;28;20185;-69
2022/09/23 00:21:21;;;;;;;14.50;4.73;;;18.80;99.90;;;;;;5060682;28;20224;-68
2022/09/23 00:23:49;;;;;;;11.43;4.77;;;18.60;99.90;;;;;;5063329;28;20669;-68
2022/09/23 00:26:19;;;;;;;12.37;4.90;;;18.70;99.90;;;;;;5061894;28;20223;-69
2022/09/23 00:28:48;;;;;;;12.23;4.97;;;18.70;99.90;;;;;;5061775;28;20212;-69
2022/09/23 00:31:22;;;;;;;11.60;4.90;;;18.80;99.90;;;;;;5067599;28;20254;-69
2022/09/23 00:33:59;;;;;;;12.23;4.57;;;18.90;99.90;;;;;;5066987;28;20201;-69
2022/09/23 00:36:28;;;;;;;15.67;5.20;;;18.90;99.90;;;;;;5062318;28;20316;-69
2022/09/23 00:38:56;;;;;;;12.57;5.03;;;18.90;99.90;;;;;;5061590;28;20207;-69
2022/09/23 00:41:25;;;;;;;14.93;4.83;;;18.90;99.90;;;;;;5062239;28;20980;-69
2022/09/23 00:43:56;;;;;;;14.33;4.97;;;18.80;99.90;;;;;;5069678;28;20180;-69
2022/09/23 00:46:40;;;;;;;18.57;5.33;;;18.70;99.90;;;;;;5068640;28;20270;-69
2022/09/23 00:49:24;;;;;;;14.73;5.33;;;18.60;99.90;;;;;;5070712;28;20195;-69
2022/09/23 00:52:00;;;;;;;17.33;6.63;;;18.70;99.90;;;;;;5055975;28;20199;-69
2022/09/23 00:54:28;;;;;;;15.97;5.70;;;18.50;99.90;;;;;;5070225;28;20180;-69
2022/09/23 00:56:58;;;;;;;18.33;6.93;;;18.50;99.90;;;;;;5061924;28;20215;-69
2022/09/23 00:59:27;;;;;;;16.93;7.00;;;18.50;99.90;;;;;;5076431;28;20188;-69
2022/09/23 01:01:57;;;;;;;16.20;5.83;;;18.70;99.90;;;;;;5091046;28;20237;-69
2022/09/23 01:04:26;;;;;;;13.13;3.93;;;18.80;99.90;;;;;;5095872;28;20183;-68
2022/09/23 01:06:54;;;;;;;8.70;2.60;;;18.80;99.90;;;;;;5074695;28;20184;-68
2022/09/23 01:09:24;;;;;;;13.03;3.23;;;18.70;99.90;;;;;;5067147;28;20192;-69
2022/09/23 01:12:23;;;;;;;13.40;3.87;;;18.80;99.90;;;;;;5072429;28;20180;-69
2022/09/23 01:14:59;;;;;;;12.70;3.50;;;19.10;99.90;;;;;;5072775;28;20218;-70
2022/09/23 01:17:51;;;;;;;8.00;3.47;;;19.20;99.90;;;;;;5070643;28;20595;-69
2022/09/23 01:20:38;;;;;;;12.27;3.77;;;19.40;99.90;;;;;;5072120;28;20180;-69
2022/09/23 01:23:30;;;;;;;11.00;3.50;;;19.60;99.90;;;;;;5072336;28;20246;-70
2022/09/23 01:26:19;;;;;;;8.13;3.47;;;19.80;99.90;;;;;;5052026;28;20229;-68
2022/09/23 01:28:59;;;;;;;10.93;3.27;;;19.90;99.90;;;;;;5067208;28;20197;-69
2022/09/23 01:31:47;;;;;;;10.37;3.37;;;20.00;99.90;;;;;;5071823;28;20180;-70
2022/09/23 01:34:26;;;;;;;10.40;3.13;;;20.00;99.90;;;;;;5072135;28;20200;-70
2022/09/23 01:37:35;;;;;;;15.20;3.87;;;20.00;99.90;;;;;;5066991;28;20717;-70
2022/09/23 01:40:24;;;;;;;10.57;3.13;;;19.80;99.90;;;;;;5072974;28;20196;-70
2022/09/23 01:42:55;;;;;;;15.73;3.93;;;19.50;99.90;;;;;;5071920;28;20249;-69
2022/09/23 01:45:47;;;;;;;15.23;4.83;;;19.50;99.90;;;;;;5071509;28;20299;-70
2022/09/23 01:48:44;;;;;;;17.87;5.67;;;19.00;99.90;;;;;;5066373;28;20270;-70
2022/09/23 01:51:25;;;;;;;9.00;3.07;;;18.80;99.90;;;;;;5061875;28;20187;-70
2022/09/23 01:54:02;;;;;;;10.20;2.77;;;18.50;99.90;;;;;;5072055;28;20641;-69
2022/09/23 01:56:42;;;;;;;14.00;3.37;;;18.30;99.90;;;;;;5068865;28;20230;-70
2022/09/23 01:59:20;;;;;;;12.93;2.87;;;18.10;99.90;;;;;;5072052;28;20266;-70
2022/09/23 02:01:58;;;;;;;10.30;2.50;;;18.10;99.90;;;;;;5070644;28;20648;-71
2022/09/23 02:04:50;;;;;;;7.90;2.30;;;18.10;99.90;;;;;;5070375;28;20188;-69
2022/09/23 02:07:26;;;;;;;19.97;8.90;;;18.00;99.90;;;;;;5071545;28;20191;-69
2022/09/23 02:10:05;;;;;;;15.63;4.13;;;18.10;99.90;;;;;;5071738;28;20536;-69
2022/09/23 02:12:37;;;;;;;7.87;2.63;;;18.20;99.90;;;;;;5051713;28;20172;-69
2022/09/23 02:15:14;;;;;;;8.13;2.00;;;18.30;99.90;;;;;;5068530;28;20184;-70
2022/09/23 02:17:47;;;;;;;7.70;2.00;;;18.30;99.90;;;;;;5074104;28;20223;-70
2022/09/23 02:20:40;;;;;;;10.83;3.13;;;18.60;99.90;;;;;;5063612;28;20212;-69
2022/09/23 02:23:29;;;;;;;6.33;2.37;;;18.90;99.90;;;;;;5055369;28;20236;-70
2022/09/23 02:26:00;;;;;;;10.57;2.17;;;19.10;99.90;;;;;;5060945;28;20257;-70
2022/09/23 02:28:41;;;;;;;6.53;2.33;;;19.00;99.90;;;;;;5075479;28;20188;-69
2022/09/23 02:31:37;;;;;;;12.70;3.30;;;19.00;99.90;;;;;;5075349;28;20188;-69
2022/09/23 02:34:20;;;;;;;17.97;3.93;;;19.10;99.90;;;;;;5047429;28;20198;-69
2022/09/23 02:37:09;;;;;;;16.53;3.70;;;19.00;99.90;;;;;;5066030;28;20349;-70
2022/09/23 02:39:59;;;;;;;13.37;2.47;;;19.00;99.90;;;;;;5055112;28;20180;-69
2022/09/23 02:43:10;;;;;;;11.27;1.97;;;18.90;99.90;;;;;;5055021;28;20554;-70
2022/09/23 02:45:38;;;;;;;13.73;2.87;;;19.00;99.90;;;;;;5051558;28;20189;-68
2022/09/23 02:48:28;;;;;;;13.87;3.43;;;19.10;99.90;;;;;;5055135;28;20177;-69
2022/09/23 02:51:01;;;;;;;16.43;2.63;;;19.20;99.90;;;;;;5068210;28;20223;-69
2022/09/23 02:53:34;;;;;;;16.27;2.67;;;19.30;99.90;;;;;;5074599;28;20184;-69
2022/09/23 02:56:12;;;;;;;13.07;2.83;;;19.40;99.90;;;;;;5074675;28;20198;-70
2022/09/23 02:58:40;;;;;;;13.03;2.40;;;19.40;99.90;;;;;;5071475;28;20184;-69
2022/09/23 03:01:30;;;;;;;10.87;2.50;;;19.40;99.90;;;;;;5074212;28;20261;-68
2022/09/23 03:04:11;;;;;;;9.40;3.07;;;19.50;99.90;;;;;;5074108;28;20180;-69
2022/09/23 03:07:05;;;;;;;10.27;2.23;;;19.50;99.90;;;;;;5072040;28;20985;-68
2022/09/23 03:09:54;;;;;;;16.10;3.00;;;19.40;99.90;;;;;;5075206;28;20185;-70
2022/09/23 03:12:46;;;;;;;16.83;3.80;;;19.40;99.90;;;;;;5074597;28;20680;-68
2022/09/23 03:15:45;;;;;;;16.00;3.20;;;19.30;99.90;;;;;;5065565;28;20180;-69
2022/09/23 03:18:33;;;;;;;14.73;3.10;;;19.10;99.90;;;;;;5054311;28;20591;-69
2022/09/23 03:21:29;;;;;;;12.77;3.73;;;19.00;99.90;;;;;;5072152;28;20553;-68
2022/09/23 03:24:02;;;;;;;14.30;4.70;;;19.00;99.90;;;;;;5073878;28;20195;-68
2022/09/23 03:26:36;;;;;;;16.83;5.03;;;18.80;99.90;;;;;;5070547;28;20219;-70
2022/09/23 03:29:10;;;;;;;20.87;6.43;;;18.70;99.90;;;;;;5053255;28;20192;-70
2022/09/23 03:31:41;;;;;;;16.70;6.67;;;18.70;99.90;;;;;;5065462;28;20219;-70
2022/09/23 03:34:15;;;;;;;17.80;6.20;;;18.70;99.90;;;;;;5073457;28;20246;-70
2022/09/23 03:37:05;;;;;;;24.60;6.43;;;18.70;99.90;;;;;;5074027;28;20243;-68
2022/09/23 03:39:47;;;;;;;17.17;5.17;;;18.70;99.90;;;;;;5057904;28;20181;-69
2022/09/23 03:42:22;;;;;;;15.10;4.70;;;18.70;99.90;;;;;;5074264;28;20183;-69
2022/09/23 03:44:55;;;;;;;15.67;4.93;;;18.60;99.90;;;;;;5073063;28;20595;-71
2022/09/23 03:47:30;;;;;;;18.50;5.43;;;18.60;99.90;;;;;;5073524;28;20191;-70
2022/09/23 03:49:57;;;;;;;14.40;4.87;;;18.70;99.90;;;;;;5071592;28;20279;-70
2022/09/23 03:52:26;;;;;;;17.80;4.37;;;18.80;99.90;;;;;;5071937;28;20708;-69
2022/09/23 03:54:54;;;;;;;13.90;4.27;;;18.80;99.90;;;;;;5071745;28;20229;-69
2022/09/23 03:57:23;;;;;;;19.03;4.27;;;18.90;99.90;;;;;;5073730;28;20302;-70
2022/09/23 03:59:51;;;;;;;8.77;2.33;;;18.80;99.90;;;;;;5073340;28;20208;-71
2022/09/23 04:02:19;;;;;;;10.00;2.50;;;18.50;99.90;;;;;;5072966;28;20184;-71
2022/09/23 04:04:47;;;;;;;12.13;2.73;;;18.20;99.90;;;;;;5063306;28;20626;-71
2022/09/23 04:07:16;;;;;;;10.37;2.47;;;18.10;99.90;;;;;;5073250;28;20210;-69
2022/09/23 04:09:44;;;;;;;11.33;3.70;;;18.00;99.90;;;;;;5071787;28;20220;-69
2022/09/23 04:12:15;;;;;;;10.83;2.43;;;18.00;99.90;;;;;;5059759;28;20188;-70
2022/09/23 04:14:43;;;;;;;10.67;2.20;;;18.00;99.90;;;;;;5062902;28;20267;-70
2022/09/23 04:17:12;;;;;;;10.97;2.20;;;17.90;99.90;;;;;;5063793;28;20677;-71
2022/09/23 04:19:41;;;;;;;12.63;2.23;;;17.90;99.90;;;;;;5072410;28;20184;-71
2022/09/23 04:22:10;;;;;;;7.83;2.03;;;18.00;99.90;;;;;;5073100;28;20207;-70
2022/09/23 04:24:37;;;;;;;14.13;2.57;;;18.00;99.90;;;;;;5072650;28;20177;-70
2022/09/23 04:27:05;;;;;;;14.47;2.97;;;18.00;99.90;;;;;;5072648;28;20227;-71
2022/09/23 04:29:33;;;;;;;10.53;2.60;;;18.10;99.90;;;;;;5072599;28;20185;-69
2022/09/23 04:32:02;;;;;;;9.37;2.60;;;18.20;99.90;;;;;;5072606;28;20184;-69
2022/09/23 04:34:31;;;;;;;8.37;2.37;;;18.30;99.90;;;;;;5069891;28;20219;-70
2022/09/23 04:36:58;;;;;;;12.90;3.03;;;18.30;99.90;;;;;;5065194;28;20708;-70
2022/09/23 04:39:28;;;;;;;13.27;2.03;;;18.30;99.90;;;;;;5068135;28;20299;-71
2022/09/23 04:42:00;;;;;;;13.50;2.47;;;18.20;99.90;;;;;;5054901;28;20188;-70
2022/09/23 04:44:28;;;;;;;8.80;2.43;;;18.30;99.90;;;;;;5072798;28;20180;-69
2022/09/23 04:46:56;;;;;;;12.73;2.57;;;18.30;99.90;;;;;;5074014;28;20176;-71
2022/09/23 04:49:24;;;;;;;10.57;2.13;;;18.30;99.90;;;;;;5065893;28;20539;-71
2022/09/23 04:51:53;;;;;;;12.00;2.60;;;18.30;99.90;;;;;;5074856;28;20180;-71
2022/09/23 04:54:22;;;;;;;9.57;2.33;;;18.40;99.90;;;;;;5075114;28;20190;-72
2022/09/23 04:56:51;;;;;;;12.00;2.60;;;18.50;99.90;;;;;;5072772;28;20252;-71
2022/09/23 04:59:19;;;;;;;11.23;2.37;;;18.50;99.90;;;;;;5068787;28;20181;-70
2022/09/23 05:01:50;;;;;;;10.03;2.30;;;18.50;99.90;;;;;;5086449;28;20179;-69
2022/09/23 05:04:18;;;;;;;12.40;2.57;;;18.60;99.90;;;;;;5083433;28;20200;-69
2022/09/23 05:06:48;;;;;;;8.23;2.00;;;18.60;99.90;;;;;;5078961;28;20648;-71
2022/09/23 05:09:17;;;;;;;16.20;2.70;;;18.60;99.90;;;;;;5070484;28;20225;-70
2022/09/23 05:11:46;;;;;;;9.27;1.63;;;18.70;99.90;;;;;;5073064;28;20187;-70
2022/09/23 05:14:15;;;;;;;7.40;2.03;;;18.90;99.90;;;;;;5071668;28;20533;-70
2022/09/23 05:16:43;;;;;;;8.93;2.03;;;19.00;99.90;;;;;;5072003;28;20247;-71
2022/09/23 05:19:12;;;;;;;15.03;2.50;;;19.10;99.90;;;;;;5071747;28;20555;-70
2022/09/23 05:21:40;;;;;;;9.53;2.27;;;19.10;99.90;;;;;;5052266;28;20215;-70
2022/09/23 05:24:11;;;;;;;11.30;2.50;;;19.30;99.90;;;;;;5057818;28;20206;-69
2022/09/23 05:26:40;;;;;;;7.10;2.50;;;19.20;99.90;;;;;;5069947;28;21774;-70
2022/09/23 05:29:08;;;;;;;8.10;2.13;;;19.30;99.90;;;;;;5069869;28;20285;-69
2022/09/23 05:31:37;;;;;;;10.40;2.27;;;19.20;99.90;;;;;;5071722;28;20180;-71
2022/09/23 05:34:05;;;;;;;12.03;2.97;;;19.20;99.90;;;;;;5072083;28;20182;-68
2022/09/23 05:36:35;;;;;;;12.27;2.50;;;19.30;99.90;;;;;;5072692;28;20195;-70
2022/09/23 05:39:05;;;;;;;8.93;1.80;;;19.30;99.90;;;;;;5072026;28;20176;-70
2022/09/23 05:41:33;;;;;;;13.00;2.77;;;19.50;99.90;;;;;;5072424;28;20175;-69
2022/09/23 05:44:02;;;;;;;12.40;2.10;;;19.60;99.90;;;;;;5072116;28;20243;-70
2022/09/23 05:46:32;;;;;;;17.93;2.27;;;19.70;99.90;;;;;;5071489;28;20198;-72
2022/09/23 05:49:04;;;;;;;11.03;2.00;;;19.80;99.90;;;;;;5072181;28;20723;-71
2022/09/23 05:51:34;;;;;;;9.60;2.20;;;19.90;99.90;;;;;;5073020;28;20179;-70
2022/09/23 05:54:02;;;;;;;7.27;2.17;;;19.90;99.90;;;;;;5075901;28;20185;-69
2022/09/23 05:56:32;;;;;;;12.80;2.70;;;20.00;99.90;;;;;;5074752;28;20669;-70
2022/09/23 05:59:01;;;;;;;9.07;2.47;;;20.00;99.90;;;;;;5075933;28;20195;-70
2022/09/23 06:01:33;;;;;;;13.63;2.67;;;20.00;99.90;;;;;;5075898;28;20175;-69
2022/09/23 06:04:03;;;;;;;16.63;2.20;;;20.00;99.90;;;;;;5075556;28;20252;-70
2022/09/23 06:06:40;;;;;;;15.40;2.70;;;20.00;99.90;;;;;;5076015;28;20168;-69
2022/09/23 06:09:13;;;;;;;8.73;2.37;;;19.90;99.90;;;;;;5072439;28;20185;-69
2022/09/23 06:11:49;;;;;;;11.23;2.30;;;19.90;99.90;;;;;;5054295;28;20186;-71
2022/09/23 06:14:17;;;;;;;13.20;3.07;;;19.80;99.90;;;;;;5055529;28;20184;-69
2022/09/23 06:16:46;;;;;;;14.90;3.00;;;19.80;99.90;;;;;;5058051;28;20553;-71
2022/09/23 06:19:13;;;;;;;9.67;2.50;;;19.80;99.90;;;;;;5073828;28;20184;-69
2022/09/23 06:21:42;;;;;;;15.07;2.53;;;19.80;99.90;;;;;;5069947;28;20556;-69
2022/09/23 06:24:15;;;;;;;18.87;3.17;;;19.80;99.90;;;;;;5055370;28;20234;-71
2022/09/23 06:26:43;;;;;;;13.50;2.60;;;19.80;99.90;;;;;;5058444;28;20223;-72
2022/09/23 06:29:17;;;;;;;15.77;3.20;;;19.80;99.90;;;;;;5075331;28;20558;-71
2022/09/23 06:31:48;;;;;;;8.00;2.07;;;19.70;99.90;;;;;;5074961;28;20184;-69
2022/09/23 06:34:16;;;;;;;9.43;1.90;;;19.70;99.90;;;;;;5075041;28;20191;-71
2022/09/23 06:36:56;;;;;;;16.70;3.17;;;19.70;99.90;;;;;;5075222;28;20745;-70
2022/09/23 06:39:24;;;;;;;9.00;1.93;;;19.70;99.90;;;;;;5075175;28;20191;-71
2022/09/23 06:41:53;;;;;;;11.43;2.80;;;19.70;99.90;;;;;;5075380;28;20180;-70
2022/09/23 06:44:21;;;;;;;12.07;3.43;;;19.70;99.90;;;;;;5073662;28;20208;-69
2022/09/23 06:46:50;;;;;;;13.67;3.57;;;19.80;99.90;;;;;;5069832;28;20187;-69
2022/09/23 06:49:21;;;;;;;17.33;2.60;;;19.70;99.90;;;;;;5074955;28;20555;-70
2022/09/23 06:51:49;;;;;;;10.40;2.60;;;19.70;99.90;;;;;;5075300;28;20188;-69
2022/09/23 06:54:17;;;;;;;14.83;2.67;;;19.70;99.90;;;;;;5075214;28;20241;-69
2022/09/23 06:56:46;;;;;;;12.40;2.40;;;19.60;99.90;;;;;;5055471;28;20236;-69
2022/09/23 06:59:15;;;;;;;9.87;2.40;;;19.60;99.90;;;;;;5055089;28;20581;-72
2022/09/23 07:01:45;;;;;;;11.73;3.17;;;19.50;99.90;;;;;;5063076;28;20180;-70
2022/09/23 07:04:14;;;;;;;13.90;2.67;;;19.40;99.90;;;;;;5074877;28;20180;-70
2022/09/23 07:06:42;;;;;;;14.13;2.97;;;19.30;99.90;;;;;;5074837;28;20248;-70
2022/09/23 07:09:10;;;;;;;19.17;3.47;;;19.20;99.90;;;;;;5056464;28;20956;-70
2022/09/23 07:11:38;;;;;;;14.50;3.20;;;19.00;99.90;;;;;;5074225;28;20180;-69
2022/09/23 07:14:06;;;;;;;17.27;3.60;;;18.90;99.90;;;;;;5074196;28;20517;-70
2022/09/23 07:16:35;;;;;;;14.00;3.73;;;18.90;99.90;;;;;;5074739;28;20277;-70
2022/09/23 07:19:03;;;;;;;13.77;3.17;;;18.90;99.90;;;;;;5074403;28;20639;-69
2022/09/23 07:21:31;;;;;;;17.83;4.00;;;18.80;99.90;;;;;;5073712;28;20210;-69
2022/09/23 07:23:58;;;;;;;12.77;3.00;;;18.80;99.90;;;;;;5072522;28;20180;-70
2022/09/23 07:26:32;;;;;;;18.73;3.60;;;18.70;99.90;;;;;;5065746;28;20228;-69
2022/09/23 07:29:04;;;;;;;20.77;3.37;;;18.60;99.90;;;;;;5072814;28;20215;-69
2022/09/23 07:31:34;;;;;;;22.37;4.07;;;18.70;99.90;;;;;;5074156;28;20263;-70
2022/09/23 07:34:03;;;;;;;12.40;2.93;;;18.70;99.90;;;;;;5072077;28;20257;-70
2022/09/23 07:36:36;;;;;;;16.93;3.00;;;18.60;99.90;;;;;;5073569;28;20214;-69
2022/09/23 07:39:04;;;;;;;18.93;3.87;;;18.60;99.90;;;;;;5072388;28;20305;-69
2022/09/23 07:41:33;;;;;;;19.50;3.70;;;18.60;99.90;;;;;;5074255;28;20176;-70
2022/09/23 07:44:01;;;;;;;18.17;3.50;;;18.60;99.90;;;;;;5073159;28;20176;-69
2022/09/23 07:46:32;;;;;;;18.77;3.80;;;18.50;99.90;;;;;;5072705;28;20180;-70
2022/09/23 07:49:02;;;;;;;16.97;2.80;;;18.50;99.90;;;;;;5073931;28;20180;-69
2022/09/23 07:51:35;;;;;;;13.97;3.60;;;18.50;99.90;;;;;;5073859;28;20164;-69
2022/09/23 07:54:06;;;;;;;16.03;3.10;;;18.50;99.90;;;;;;5074025;28;20203;-69
2022/09/23 07:56:40;;;;;;;14.37;3.07;;;18.40;99.90;;;;;;5072629;28;20168;-70
2022/09/23 07:59:14;;;;;;;21.13;4.03;;;18.30;99.90;;;;;;5073924;28;20523;-69
2022/09/23 08:01:46;;;;;;;19.43;3.73;;;18.30;99.90;;;;;;5074215;28;20668;-70
2022/09/23 08:04:23;;;;;;;12.77;3.30;;;18.20;99.90;;;;;;5073936;28;20167;-70
2022/09/23 08:06:54;;;;;;;13.47;3.33;;;18.20;99.90;;;;;;5073777;28;20702;-68
2022/09/23 08:09:26;;;;;;;19.17;3.57;;;18.20;99.90;;;;;;5073528;28;20168;-70
2022/09/23 08:11:58;;;;;;;15.90;3.63;;;18.10;99.90;;;;;;5072913;28;20253;-69
2022/09/23 08:14:26;;;;;;;18.83;3.40;;;18.10;99.90;;;;;;5072770;28;20255;-70
2022/09/23 08:16:54;;;;;;;17.47;3.47;;;18.00;99.90;;;;;;5073609;28;20238;-69
2022/09/23 08:19:24;;;;;;;18.03;3.90;;;18.00;99.90;;;;;;5073969;28;20203;-70
2022/09/23 08:21:53;;;;;;;17.67;3.87;;;18.10;99.90;;;;;;5073453;28;20279;-70
2022/09/23 08:24:23;;;;;;;18.57;3.70;;;18.10;99.90;;;;;;5074029;28;20633;-70
2022/09/23 08:26:52;;;;;;;15.23;4.13;;;18.10;99.90;;;;;;5073171;28;20311;-70
2022/09/23 08:29:22;;;;;;;16.07;3.17;;;18.10;99.90;;;;;;5067758;28;20276;-69
2022/09/23 08:31:51;;;;;;;15.00;3.17;;;18.20;99.90;;;;;;5061540;28;20208;-69
2022/09/23 08:34:22;;;;;;;21.60;4.20;;;18.10;99.90;;;;;;5062621;28;20597;-70
2022/09/23 08:36:51;;;;;;;18.93;3.90;;;18.10;99.90;;;;;;5060255;28;20749;-69
2022/09/23 08:39:23;;;;;;;16.33;3.37;;;18.20;99.90;;;;;;5061194;28;20643;-70
2022/09/23 08:41:53;;;;;;;19.00;3.53;;;18.30;99.90;;;;;;5071458;28;20203;-70
2022/09/23 08:44:33;;;;;;;15.43;3.53;;;18.20;99.90;;;;;;5071467;28;20230;-70
2022/09/23 08:47:15;;;;;;;17.80;3.60;;;18.20;99.90;;;;;;5072397;28;20183;-70
2022/09/23 08:50:06;;;;;;;22.60;3.70;;;18.20;99.90;;;;;;5073866;28;20167;-71
2022/09/23 08:52:58;;;;;;;18.30;3.50;;;18.30;99.90;;;;;;5074057;28;20195;-71
2022/09/23 08:55:52;;;;;;;21.60;4.07;;;18.30;99.90;;;;;;5067413;28;20551;-69
2022/09/23 08:58:50;;;;;;;19.77;4.47;;;18.20;99.90;;;;;;5088021;28;20211;-70
2022/09/23 09:01:36;;;;;;;20.40;3.97;;;18.20;99.90;;;;;;5091107;28;20195;-70
2022/09/23 09:04:51;;;;;;;15.47;3.90;;;18.10;99.90;;;;;;5072749;28;20712;-69
2022/09/23 09:07:22;;;;;;;21.80;3.90;;;18.10;99.90;;;;;;5011302;28;20182;-69
2022/09/23 09:10:13;;;;;;;18.07;4.40;;;18.10;99.90;;;;;;5010856;28;20205;-69
2022/09/23 09:12:48;;;;;;;16.50;4.00;;;18.10;99.90;;;;;;5052725;28;20184;-71
2022/09/23 09:15:20;;;;;;;17.97;4.03;;;18.10;99.90;;;;;;5072751;28;20167;-71
2022/09/23 09:18:02;;;;;;;20.77;4.47;;;18.10;99.90;;;;;;5065797;28;20219;-70
2022/09/23 09:20:48;;;;;;;18.70;4.27;;;18.10;99.90;;;;;;5065372;28;20218;-70
2022/09/23 09:23:23;;;;;;;20.80;4.40;;;18.00;99.90;;;;;;5071001;28;20191;-70
2022/09/23 09:25:59;;;;;;;18.67;4.00;;;18.00;99.90;;;;;;5072220;28;20222;-69
2022/09/23 09:28:35;;;;;;;18.93;3.50;;;18.00;99.90;;;;;;5071624;28;20178;-68
2022/09/23 09:31:20;;;;;;;20.40;4.03;;;17.90;99.90;;;;;;5072175;28;20172;-70
2022/09/23 09:34:05;;;;;;;19.07;4.27;;;17.90;99.90;;;;;;5072707;28;20186;-70
2022/09/23 09:36:41;;;;;;;16.80;3.80;;;17.80;99.90;;;;;;5072244;28;20217;-71
2022/09/23 09:39:16;;;;;;;16.67;3.67;;;17.80;99.90;;;;;;5072336;28;20565;-70
2022/09/23 09:41:49;;;;;;;18.20;4.00;;;17.90;99.90;;;;;;5052661;28;20207;-70
2022/09/23 09:44:40;;;;;;;25.10;5.03;;;17.90;99.90;;;;;;5051132;28;20188;-71
2022/09/23 09:47:33;;;;;;;18.67;4.33;;;17.90;99.90;;;;;;5058227;28;20237;-70
2022/09/23 09:50:12;;;;;;;20.83;3.90;;;17.90;99.90;;;;;;5071998;28;20184;-71
2022/09/23 09:52:42;;;;;;;13.37;4.03;;;17.90;99.90;;;;;;5070592;28;20562;-71
2022/09/23 09:55:26;;;;;;;25.90;4.57;;;17.80;99.90;;;;;;5072024;28;20176;-70
2022/09/23 09:58:07;;;;;;;22.13;4.10;;;17.80;99.90;;;;;;5071129;28;20223;-71
2022/09/23 10:00:44;;;;;;;20.97;4.47;;;17.80;99.90;;;;;;5070885;28;20579;-69
2022/09/23 10:03:37;;;;;;;16.77;5.23;;;17.80;99.90;;;;;;5072289;28;20347;-70
2022/09/23 10:06:20;;;;;;;15.77;4.03;;;17.90;99.90;;;;;;5072308;28;20249;-70
2022/09/23 10:09:11;;;;;;;22.07;5.80;;;17.90;99.90;;;;;;5072269;28;20193;-70
2022/09/23 10:11:41;;;;;;;23.30;5.37;;;17.90;99.90;;;;;;5045176;28;20203;-71
2022/09/23 10:14:18;;;;;;;21.83;5.53;;;18.00;99.90;;;;;;5051018;28;20216;-71
2022/09/23 10:17:04;;;;;;;23.70;5.90;;;18.00;99.90;;;;;;5051946;28;20689;-70
2022/09/23 10:19:33;;;;;;;17.60;5.37;;;18.00;99.90;;;;;;5053707;28;20184;-70
2022/09/23 10:22:14;;;;;;;22.30;5.87;;;17.90;99.90;;;;;;5071862;28;20215;-70
2022/09/23 10:24:49;;;;;;;19.83;6.07;;;18.00;99.90;;;;;;5071892;28;20203;-72
2022/09/23 10:27:32;;;;;;;22.80;5.67;;;18.00;99.90;;;;;;5072803;28;20416;-69
2022/09/23 10:30:22;;;;;;;19.20;5.70;;;18.00;99.90;;;;;;5072651;28;20245;-70
2022/09/23 10:32:53;;;;;;;24.67;6.87;;;18.00;99.90;;;;;;5071862;28;20188;-69
2022/09/23 10:35:27;;;;;;;25.63;8.57;;;17.90;99.90;;;;;;5073296;28;20716;-70
2022/09/23 10:38:01;;;;;;;19.60;7.40;;;17.90;99.90;;;;;;5075364;28;20218;-70
2022/09/23 10:46:40;;;;;;;22.87;8.20;;;17.90;99.90;;;;;;5077123;28;20190;-70
2022/09/23 10:49:20;;;;;;;26.40;9.87;;;18.00;99.90;;;;;;5076752;28;20183;-69
2022/09/23 10:52:18;;;;;;;32.30;10.17;;;17.90;99.90;;;;;;5077255;28;20187;-71
2022/09/23 10:55:10;;;;;;;25.57;9.20;;;17.80;99.90;;;;;;5076625;28;20176;-71
2022/09/23 10:57:49;;;;;;;31.73;9.27;;;17.70;99.90;;;;;;5074934;28;20295;-70
2022/09/23 11:00:37;;;;;;;23.77;9.90;;;17.70;99.90;;;;;;5076664;28;20613;-70
2022/09/23 11:03:23;;;;;;;21.50;9.27;;;17.70;99.90;;;;;;5075759;28;20180;-70
2022/09/23 11:06:30;;;;;;;22.03;10.40;;;17.60;99.90;;;;;;5066791;28;20640;-70
2022/09/23 11:09:16;;;;;;;23.13;11.10;;;17.60;99.90;;;;;;5061364;28;20189;-69
2022/09/23 11:12:15;;;;;;;26.73;11.17;;;17.50;99.90;;;;;;5056704;28;20185;-70
2022/09/23 11:14:50;;;;;;;23.37;10.37;;;17.60;99.90;;;;;;5056449;28;20707;-70
2022/09/23 11:17:27;;;;;;;25.43;11.60;;;17.60;99.90;;;;;;5056826;28;20629;-70
2022/09/23 11:20:24;;;;;;;24.43;10.60;;;17.70;99.90;;;;;;5056393;28;20202;-70
2022/09/23 11:23:06;;;;;;;23.37;12.13;;;17.70;99.90;;;;;;5054810;28;20238;-69
2022/09/23 11:25:46;;;;;;;21.23;11.03;;;17.60;99.90;;;;;;5056123;28;20261;-70
2022/09/23 11:28:42;;;;;;;29.77;12.33;;;17.50;99.90;;;;;;5055952;28;20181;-70
2022/09/23 11:31:59;;;;;;;29.57;13.20;;;17.60;99.90;;;;;;5055899;28;20528;-70
2022/09/23 11:34:27;;;;;;;27.10;12.27;;;17.80;99.90;;;;;;5053050;28;20204;-70
2022/09/23 11:37:03;;;;;;;28.30;12.70;;;17.70;99.90;;;;;;5055932;28;20204;-69
2022/09/23 11:39:44;;;;;;;24.63;11.93;;;17.70;99.90;;;;;;5055680;28;20189;-69
2022/09/23 11:42:25;;;;;;;30.83;13.90;;;17.70;99.90;;;;;;5055403;28;20177;-71
2022/09/23 11:45:00;;;;;;;28.30;13.17;;;17.70;99.90;;;;;;5055283;28;20664;-71
2022/09/23 11:47:57;;;;;;;25.33;11.83;;;17.80;99.90;;;;;;5055274;28;20176;-70
2022/09/23 11:50:40;;;;;;;31.53;13.77;;;17.80;99.90;;;;;;5054833;28;20176;-71
2022/09/23 11:53:22;;;;;;;30.93;13.33;;;17.80;99.90;;;;;;5055380;28;20222;-70
2022/09/23 11:56:34;;;;;;;35.40;14.17;;;17.80;99.90;;;;;;5055158;28;20194;-71
2022/09/23 11:59:10;;;;;;;29.37;12.80;;;17.80;99.90;;;;;;5013191;28;20229;-70
2022/09/23 12:01:48;;;;;;;23.57;12.60;;;17.80;99.90;;;;;;5052541;28;20279;-71
2022/09/23 12:04:33;;;;;;;23.93;12.10;;;17.80;99.90;;;;;;5055234;28;20255;-71
2022/09/23 12:07:11;;;;;;;24.67;13.53;;;17.90;99.90;;;;;;5055168;28;20708;-71
2022/09/23 12:09:59;;;;;;;31.03;13.77;;;17.80;99.90;;;;;;5055658;28;20165;-70
2022/09/23 12:12:41;;;;;;;26.07;13.17;;;17.90;99.90;;;;;;5055041;28;20585;-71
2022/09/23 12:15:26;;;;;;;33.90;13.47;;;18.00;99.90;;;;;;5055074;28;20173;-71
2022/09/23 12:18:00;;;;;;;26.83;13.37;;;17.90;99.90;;;;;;5054967;28;20215;-69
2022/09/23 12:20:41;;;;;;;27.07;13.23;;;17.90;99.90;;;;;;5055294;28;20179;-70
2022/09/23 12:23:37;;;;;;;24.23;12.10;;;17.90;99.90;;;;;;5054451;28;20175;-71
2022/09/23 12:26:22;;;;;;;29.03;14.40;;;17.90;99.90;;;;;;5045872;28;20755;-70
2022/09/23 12:28:53;;;;;;;26.57;13.73;;;17.80;99.90;;;;;;5053159;28;20208;-70
2022/09/23 12:31:34;;;;;;;26.77;14.47;;;17.70;99.90;;;;;;5054450;28;20271;-71
2022/09/23 12:34:08;;;;;;;23.50;13.63;;;17.80;99.90;;;;;;5054536;28;20176;-71
2022/09/23 12:36:38;;;;;;;22.60;13.60;;;17.80;99.90;;;;;;5054431;28;20168;-71
2022/09/23 12:39:22;;;;;;;23.10;14.13;;;17.80;99.90;;;;;;5054581;28;20322;-69
2022/09/23 12:41:59;;;;;;;25.70;14.10;;;17.70;99.90;;;;;;5054287;28;20262;-70
2022/09/23 12:44:40;;;;;;;32.83;15.90;;;17.60;99.90;;;;;;5053787;28;20172;-69
2022/09/23 12:47:20;;;;;;;27.43;13.73;;;17.60;99.90;;;;;;5054228;28;20217;-70
2022/09/23 12:49:49;;;;;;;28.07;13.77;;;17.70;99.90;;;;;;5054316;28;20730;-70
2022/09/23 12:52:17;;;;;;;25.00;13.97;;;17.60;99.90;;;;;;5054101;28;20171;-70
2022/09/23 12:54:46;;;;;;;31.33;14.93;;;17.60;99.90;;;;;;5064172;28;20175;-70
2022/09/23 12:57:14;;;;;;;26.70;14.93;;;17.50;99.90;;;;;;5069971;28;20213;-70
2022/09/23 12:59:59;;;;;;;26.23;15.73;;;17.50;99.90;;;;;;5073260;28;20565;-70
2022/09/23 13:02:46;;;;;;;24.70;14.27;;;17.50;99.90;;;;;;5073005;28;20624;-70
2022/09/23 13:08:31;;;;;;;25.07;14.70;;;17.40;99.90;;;;;;5076669;28;20224;-71
2022/09/23 13:11:03;;;;;;;27.23;15.80;;;17.30;99.90;;;;;;5094490;28;20180;-71
2022/09/23 13:13:37;;;;;;;27.67;14.60;;;17.30;99.90;;;;;;5099304;28;20243;-72
2022/09/23 13:16:57;;;;;;;23.23;13.90;;;17.30;99.90;;;;;;5098808;28;20168;-70
2022/09/23 13:19:27;;;;;;;23.27;13.93;;;17.20;99.90;;;;;;5011914;28;20332;-71
2022/09/23 13:22:08;;;;;;;30.43;14.87;;;17.20;99.90;;;;;;5064789;28;20188;-71
2022/09/23 13:24:39;;;;;;;22.87;13.27;;;17.20;99.90;;;;;;5073454;28;20249;-71
2022/09/23 13:27:31;;;;;;;23.93;14.67;;;17.10;99.90;;;;;;5073139;28;20236;-71
2022/09/23 13:30:18;;;;;;;29.33;14.30;;;17.10;99.90;;;;;;5073659;28;20175;-70
2022/09/23 13:33:06;;;;;;;23.07;14.10;;;17.10;99.90;;;;;;5073838;28;20221;-70